Anemona — 3EUT9 — position and weather

sailwx.info

Track history (hours):
 
Tides and Currents Weather Stations Pressure Air Temp Water Temp Dewpoint Dewpoint Depression Visibility Wind Speed Wind Dir Waves Ship Positions

Anemona

Last reported at 2016-May-27 05:26 UTC. Time now 2016-May-27 20:05 UTC.
Position S 33°06' E 151°56'.

Length 192 m; draft 6.9 m.

Type: Cargo ship. MMSI: 355664000.

Date/timePositionNaut miles runAvg speedWind from/ knotsBaromVisibWave heightAir tempDewpointWater temp
2016-May-27 05:26S 33°06' E 151°56'9 9.8
2016-May-27 04:33S 32°60' E 152°03'1110.8
2016-May-27 03:33S 32°52' E 152°12'1110.9
2016-May-27 02:34S 32°44' E 152°21'1110.8
2016-May-27 01:33S 32°36' E 152°30'1111.1
2016-May-27 00:33S 32°28' E 152°38'26713.1
2016-May-26 04:15S 28°08' E 153°51'1613.7
2016-May-26 03:05S 27°52' E 153°51'813.4
2016-May-26 02:31S 27°45' E 153°52'3012.6
2016-May-26 00:09S 27°15' E 153°53'912.3
2016-May-25 23:26S 27°06' E 153°54'2412.7
2016-May-25 21:33S 26°42' E 153°55'1512.5
2016-May-25 20:21S 26°27' E 153°56'1012.8
2016-May-25 19:33S 26°17' E 153°56'  
Track history (hours):
 
Tides and Currents Weather Stations Pressure Air Temp Water Temp Dewpoint Dewpoint Depression Visibility Wind Speed Wind Dir Waves Ship Positions

Anemona

Last reported at 2016-May-27 05:26 UTC. Time now 2016-May-27 20:05 UTC.
Position S 33°06' E 151°56'.

Length 192 m; draft 6.9 m.

Type: Cargo ship. MMSI: 355664000.

Date/timePositionNaut miles runAvg speedWind from/ knotsBaromVisibWave heightAir tempDewpointWater temp
2016-May-27 05:26S 33°06' E 151°56'9 9.8
2016-May-27 04:33S 32°60' E 152°03'1110.8
2016-May-27 03:33S 32°52' E 152°12'1110.9
2016-May-27 02:34S 32°44' E 152°21'1110.8
2016-May-27 01:33S 32°36' E 152°30'1111.1
2016-May-27 00:33S 32°28' E 152°38'26713.1
2016-May-26 04:15S 28°08' E 153°51'1613.7
2016-May-26 03:05S 27°52' E 153°51'813.4
2016-May-26 02:31S 27°45' E 153°52'3012.6
2016-May-26 00:09S 27°15' E 153°53'912.3
2016-May-25 23:26S 27°06' E 153°54'2412.7
2016-May-25 21:33S 26°42' E 153°55'1512.5
2016-May-25 20:21S 26°27' E 153°56'1012.8
2016-May-25 19:33S 26°17' E 153°56'  

Dump ship's entire track history